sensor_id;sensor_type;location;lat;lon;timestamp;P1;durP1;ratioP1;P2;durP2;ratioP2
22359;SDS011;11347;52.030;4.690;2023-04-12T07:49:14;24.70;;;3.58;;
22359;SDS011;11347;52.030;4.690;2023-04-12T07:51:40;28.48;;;4.38;;
22359;SDS011;11347;52.030;4.690;2023-04-12T07:54:07;29.40;;;4.28;;
22359;SDS011;11347;52.030;4.690;2023-04-12T07:56:33;23.75;;;3.70;;
22359;SDS011;11347;52.030;4.690;2023-04-12T07:58:59;31.63;;;4.00;;
22359;SDS011;11347;52.030;4.690;2023-04-12T08:01:25;20.30;;;3.10;;
22359;SDS011;11347;52.030;4.690;2023-04-12T08:03:52;17.17;;;3.05;;
22359;SDS011;11347;52.030;4.690;2023-04-12T08:06:18;21.65;;;3.03;;
22359;SDS011;11347;52.030;4.690;2023-04-12T08:08:44;25.38;;;3.20;;
22359;SDS011;11347;52.030;4.690;2023-04-12T08:11:10;22.15;;;3.20;;
22359;SDS011;11347;52.030;4.690;2023-04-12T08:13:36;26.23;;;3.90;;
22359;SDS011;11347;52.030;4.690;2023-04-12T08:16:02;21.92;;;3.28;;
22359;SDS011;11347;52.030;4.690;2023-04-12T08:18:28;24.50;;;3.50;;
22359;SDS011;11347;52.030;4.690;2023-04-12T08:20:55;26.27;;;3.70;;
22359;SDS011;11347;52.030;4.690;2023-04-12T08:23:21;19.20;;;3.40;;
22359;SDS011;11347;52.030;4.690;2023-04-12T08:25:47;24.20;;;3.47;;
22359;SDS011;11347;52.030;4.690;2023-04-12T08:28:13;20.08;;;3.38;;
22359;SDS011;11347;52.030;4.690;2023-04-12T08:30:39;25.50;;;3.55;;
22359;SDS011;11347;52.030;4.690;2023-04-12T08:33:05;21.48;;;3.28;;
22359;SDS011;11347;52.030;4.690;2023-04-12T08:35:31;18.08;;;2.95;;
22359;SDS011;11347;52.030;4.690;2023-04-12T08:40:19;23.60;;;3.70;;
22359;SDS011;11347;52.030;4.690;2023-04-12T08:42:45;18.10;;;3.00;;
22359;SDS011;11347;52.030;4.690;2023-04-12T08:45:11;20.58;;;3.58;;
22359;SDS011;11347;52.030;4.690;2023-04-12T08:47:41;25.40;;;3.90;;
22359;SDS011;11347;52.030;4.690;2023-04-12T08:50:08;22.73;;;3.38;;
22359;SDS011;11347;52.030;4.690;2023-04-12T08:52:37;23.50;;;4.07;;
22359;SDS011;11347;52.030;4.690;2023-04-12T08:55:04;20.65;;;3.85;;
22359;SDS011;11347;52.030;4.690;2023-04-12T08:57:30;22.58;;;3.92;;
22359;SDS011;11347;52.030;4.690;2023-04-12T08:59:59;20.95;;;4.38;;
22359;SDS011;11347;52.030;4.690;2023-04-12T09:02:26;24.25;;;3.63;;
22359;SDS011;11347;52.030;4.690;2023-04-12T09:04:52;21.20;;;3.40;;
22359;SDS011;11347;52.030;4.690;2023-04-12T09:07:18;21.40;;;4.00;;
22359;SDS011;11347;52.030;4.690;2023-04-12T09:09:47;19.75;;;3.55;;
22359;SDS011;11347;52.030;4.690;2023-04-12T09:12:13;20.60;;;3.50;;
22359;SDS011;11347;52.030;4.690;2023-04-12T09:14:40;22.63;;;5.00;;
22359;SDS011;11347;52.030;4.690;2023-04-12T09:17:25;23.75;;;3.83;;
22359;SDS011;11347;52.030;4.690;2023-04-12T09:19:52;23.80;;;3.88;;
22359;SDS011;11347;52.030;4.690;2023-04-12T09:22:31;23.25;;;3.53;;
22359;SDS011;11347;52.030;4.690;2023-04-12T09:24:57;19.40;;;3.20;;
22359;SDS011;11347;52.030;4.690;2023-04-12T09:27:23;21.07;;;4.30;;
22359;SDS011;11347;52.030;4.690;2023-04-12T09:29:49;20.20;;;3.78;;
22359;SDS011;11347;52.030;4.690;2023-04-12T09:32:25;22.63;;;3.40;;
22359;SDS011;11347;52.030;4.690;2023-04-12T09:34:55;21.60;;;3.25;;
22359;SDS011;11347;52.030;4.690;2023-04-12T09:37:29;15.30;;;2.97;;
22359;SDS011;11347;52.030;4.690;2023-04-12T09:39:58;20.83;;;3.72;;
22359;SDS011;11347;52.030;4.690;2023-04-12T09:42:25;20.40;;;3.42;;
22359;SDS011;11347;52.030;4.690;2023-04-12T09:44:52;22.73;;;3.72;;
22359;SDS011;11347;52.030;4.690;2023-04-12T09:47:19;20.13;;;3.25;;
22359;SDS011;11347;52.030;4.690;2023-04-12T09:49:45;19.42;;;3.40;;
22359;SDS011;11347;52.030;4.690;2023-04-12T09:52:11;18.98;;;3.30;;
22359;SDS011;11347;52.030;4.690;2023-04-12T09:54:42;19.08;;;3.80;;
22359;SDS011;11347;52.030;4.690;2023-04-12T09:57:08;18.70;;;3.30;;
22359;SDS011;11347;52.030;4.690;2023-04-12T09:59:35;17.17;;;3.30;;
22359;SDS011;11347;52.030;4.690;2023-04-12T10:02:22;21.45;;;3.25;;
22359;SDS011;11347;52.030;4.690;2023-04-12T10:04:51;17.88;;;3.25;;
22359;SDS011;11347;52.030;4.690;2023-04-12T10:07:17;18.48;;;3.50;;
22359;SDS011;11347;52.030;4.690;2023-04-12T10:09:44;19.52;;;3.30;;
22359;SDS011;11347;52.030;4.690;2023-04-12T10:12:11;22.45;;;3.80;;
22359;SDS011;11347;52.030;4.690;2023-04-12T10:14:37;19.93;;;3.40;;
22359;SDS011;11347;52.030;4.690;2023-04-12T10:17:03;17.23;;;3.25;;
22359;SDS011;11347;52.030;4.690;2023-04-12T10:19:30;16.45;;;3.00;;
22359;SDS011;11347;52.030;4.690;2023-04-12T10:21:59;17.13;;;3.03;;
22359;SDS011;11347;52.030;4.690;2023-04-12T10:24:26;16.90;;;2.80;;
22359;SDS011;11347;52.030;4.690;2023-04-12T10:26:53;13.40;;;2.78;;
22359;SDS011;11347;52.030;4.690;2023-04-12T10:31:49;13.13;;;2.75;;
22359;SDS011;11347;52.030;4.690;2023-04-12T10:34:15;15.38;;;3.17;;
22359;SDS011;11347;52.030;4.690;2023-04-12T10:39:17;18.33;;;2.90;;
22359;SDS011;11347;52.030;4.690;2023-04-12T10:42:13;18.92;;;3.40;;
22359;SDS011;11347;52.030;4.690;2023-04-12T10:44:35;17.92;;;3.40;;
22359;SDS011;11347;52.030;4.690;2023-04-12T10:47:01;17.83;;;3.17;;
22359;SDS011;11347;52.030;4.690;2023-04-12T10:49:27;25.52;;;4.45;;
22359;SDS011;11347;52.030;4.690;2023-04-12T10:56:52;12.30;;;2.40;;
22359;SDS011;11347;52.030;4.690;2023-04-12T10:59:18;13.00;;;2.22;;
22359;SDS011;11347;52.030;4.690;2023-04-12T11:04:29;14.57;;;2.45;;
22359;SDS011;11347;52.030;4.690;2023-04-12T11:06:56;10.52;;;2.05;;
22359;SDS011;11347;52.030;4.690;2023-04-12T11:09:27;11.55;;;2.03;;
22359;SDS011;11347;52.030;4.690;2023-04-12T11:14:36;8.75;;;1.90;;
22359;SDS011;11347;52.030;4.690;2023-04-12T11:19:53;9.35;;;2.20;;
22359;SDS011;11347;52.030;4.690;2023-04-12T11:22:18;9.38;;;1.80;;
22359;SDS011;11347;52.030;4.690;2023-04-12T11:24:45;8.00;;;1.63;;
22359;SDS011;11347;52.030;4.690;2023-04-12T11:27:12;6.68;;;1.40;;
22359;SDS011;11347;52.030;4.690;2023-04-12T11:29:40;9.20;;;1.75;;
22359;SDS011;11347;52.030;4.690;2023-04-12T11:32:09;11.77;;;2.08;;
22359;SDS011;11347;52.030;4.690;2023-04-12T11:34:36;8.65;;;1.70;;
22359;SDS011;11347;52.030;4.690;2023-04-12T11:37:04;8.52;;;1.70;;
22359;SDS011;11347;52.030;4.690;2023-04-12T11:39:32;9.25;;;2.00;;
22359;SDS011;11347;52.030;4.690;2023-04-12T11:41:59;9.60;;;1.60;;
22359;SDS011;11347;52.030;4.690;2023-04-12T11:44:28;6.03;;;1.30;;
22359;SDS011;11347;52.030;4.690;2023-04-12T11:46:54;8.25;;;1.50;;
22359;SDS011;11347;52.030;4.690;2023-04-12T11:49:21;5.68;;;1.15;;
22359;SDS011;11347;52.030;4.690;2023-04-12T11:51:47;6.18;;;1.38;;
22359;SDS011;11347;52.030;4.690;2023-04-12T11:54:14;4.60;;;1.08;;
22359;SDS011;11347;52.030;4.690;2023-04-12T11:56:40;8.70;;;1.60;;
22359;SDS011;11347;52.030;4.690;2023-04-12T11:59:06;6.65;;;1.52;;
22359;SDS011;11347;52.030;4.690;2023-04-12T12:01:33;6.10;;;1.50;;
22359;SDS011;11347;52.030;4.690;2023-04-12T12:03:59;7.50;;;1.45;;
22359;SDS011;11347;52.030;4.690;2023-04-12T12:06:26;8.10;;;1.60;;
22359;SDS011;11347;52.030;4.690;2023-04-12T12:08:52;6.80;;;1.20;;
22359;SDS011;11347;52.030;4.690;2023-04-12T12:11:19;6.03;;;1.15;;
22359;SDS011;11347;52.030;4.690;2023-04-12T12:13:49;8.80;;;1.30;;
22359;SDS011;11347;52.030;4.690;2023-04-12T12:16:16;6.85;;;1.20;;
22359;SDS011;11347;52.030;4.690;2023-04-12T12:18:43;7.38;;;1.25;;
22359;SDS011;11347;52.030;4.690;2023-04-12T12:21:13;8.80;;;1.50;;
22359;SDS011;11347;52.030;4.690;2023-04-12T12:23:41;6.45;;;1.50;;
22359;SDS011;11347;52.030;4.690;2023-04-12T12:26:07;8.25;;;1.50;;
22359;SDS011;11347;52.030;4.690;2023-04-12T12:28:37;5.65;;;1.33;;
22359;SDS011;11347;52.030;4.690;2023-04-12T12:31:04;7.93;;;1.70;;
22359;SDS011;11347;52.030;4.690;2023-04-12T12:33:37;7.15;;;1.48;;
22359;SDS011;11347;52.030;4.690;2023-04-12T12:36:03;6.05;;;1.20;;
22359;SDS011;11347;52.030;4.690;2023-04-12T12:41:14;4.40;;;1.20;;
22359;SDS011;11347;52.030;4.690;2023-04-12T12:43:47;7.05;;;1.60;;
22359;SDS011;11347;52.030;4.690;2023-04-12T12:46:14;7.22;;;1.40;;
22359;SDS011;11347;52.030;4.690;2023-04-12T12:48:41;6.03;;;1.60;;
22359;SDS011;11347;52.030;4.690;2023-04-12T12:51:08;8.07;;;1.67;;
22359;SDS011;11347;52.030;4.690;2023-04-12T12:53:34;5.95;;;1.60;;
22359;SDS011;11347;52.030;4.690;2023-04-12T12:56:01;7.85;;;1.33;;
22359;SDS011;11347;52.030;4.690;2023-04-12T12:58:28;5.90;;;1.43;;
22359;SDS011;11347;52.030;4.690;2023-04-12T13:00:54;6.07;;;1.50;;
22359;SDS011;11347;52.030;4.690;2023-04-12T13:03:20;6.18;;;1.60;;
22359;SDS011;11347;52.030;4.690;2023-04-12T13:05:46;11.43;;;1.75;;
22359;SDS011;11347;52.030;4.690;2023-04-12T13:08:12;6.60;;;1.70;;
22359;SDS011;11347;52.030;4.690;2023-04-12T13:10:38;7.20;;;1.95;;
22359;SDS011;11347;52.030;4.690;2023-04-12T13:13:04;6.18;;;1.42;;
22359;SDS011;11347;52.030;4.690;2023-04-12T13:15:30;7.88;;;1.50;;
22359;SDS011;11347;52.030;4.690;2023-04-12T13:17:56;7.30;;;1.55;;
22359;SDS011;11347;52.030;4.690;2023-04-12T13:20:22;4.50;;;1.40;;
22359;SDS011;11347;52.030;4.690;2023-04-12T13:22:49;6.00;;;1.80;;
22359;SDS011;11347;52.030;4.690;2023-04-12T13:25:16;7.20;;;1.60;;
22359;SDS011;11347;52.030;4.690;2023-04-12T13:27:48;4.90;;;1.42;;
22359;SDS011;11347;52.030;4.690;2023-04-12T13:30:14;4.63;;;1.00;;
22359;SDS011;11347;52.030;4.690;2023-04-12T13:32:40;3.85;;;0.80;;
22359;SDS011;11347;52.030;4.690;2023-04-12T13:35:08;2.20;;;0.80;;
22359;SDS011;11347;52.030;4.690;2023-04-12T13:37:34;4.82;;;0.98;;
22359;SDS011;11347;52.030;4.690;2023-04-12T13:40:01;2.92;;;0.80;;
22359;SDS011;11347;52.030;4.690;2023-04-12T13:42:27;3.08;;;0.90;;
22359;SDS011;11347;52.030;4.690;2023-04-12T13:44:53;3.72;;;1.10;;
22359;SDS011;11347;52.030;4.690;2023-04-12T13:47:19;3.95;;;1.02;;
22359;SDS011;11347;52.030;4.690;2023-04-12T13:49:46;4.70;;;0.93;;
22359;SDS011;11347;52.030;4.690;2023-04-12T13:52:12;3.72;;;0.80;;
22359;SDS011;11347;52.030;4.690;2023-04-12T13:54:38;3.23;;;0.90;;
22359;SDS011;11347;52.030;4.690;2023-04-12T13:57:08;3.45;;;0.70;;
22359;SDS011;11347;52.030;4.690;2023-04-12T13:59:34;4.25;;;0.80;;
22359;SDS011;11347;52.030;4.690;2023-04-12T14:02:00;3.03;;;0.95;;
22359;SDS011;11347;52.030;4.690;2023-04-12T14:04:27;4.70;;;0.82;;
22359;SDS011;11347;52.030;4.690;2023-04-12T14:06:53;4.30;;;1.00;;
22359;SDS011;11347;52.030;4.690;2023-04-12T14:11:49;3.85;;;0.98;;
22359;SDS011;11347;52.030;4.690;2023-04-12T14:14:16;4.45;;;1.10;;
22359;SDS011;11347;52.030;4.690;2023-04-12T14:16:42;3.75;;;0.85;;
22359;SDS011;11347;52.030;4.690;2023-04-12T14:19:08;3.47;;;0.90;;
22359;SDS011;11347;52.030;4.690;2023-04-12T14:21:34;4.22;;;1.00;;
22359;SDS011;11347;52.030;4.690;2023-04-12T14:24:01;4.45;;;1.17;;
22359;SDS011;11347;52.030;4.690;2023-04-12T14:26:27;2.95;;;0.77;;
22359;SDS011;11347;52.030;4.690;2023-04-12T14:28:53;2.65;;;0.73;;
22359;SDS011;11347;52.030;4.690;2023-04-12T14:31:20;4.57;;;1.00;;
22359;SDS011;11347;52.030;4.690;2023-04-12T14:33:46;3.47;;;1.10;;
22359;SDS011;11347;52.030;4.690;2023-04-12T14:36:12;3.55;;;0.80;;
22359;SDS011;11347;52.030;4.690;2023-04-12T14:38:38;4.30;;;1.15;;
22359;SDS011;11347;52.030;4.690;2023-04-12T14:41:06;4.50;;;0.80;;
22359;SDS011;11347;52.030;4.690;2023-04-12T14:43:32;4.63;;;0.90;;
22359;SDS011;11347;52.030;4.690;2023-04-12T14:45:58;3.17;;;0.90;;
22359;SDS011;11347;52.030;4.690;2023-04-12T14:48:25;2.95;;;0.90;;
22359;SDS011;11347;52.030;4.690;2023-04-12T14:50:51;4.07;;;1.10;;
22359;SDS011;11347;52.030;4.690;2023-04-12T14:53:18;4.93;;;1.08;;
22359;SDS011;11347;52.030;4.690;2023-04-12T14:55:45;6.10;;;0.85;;
22359;SDS011;11347;52.030;4.690;2023-04-12T14:58:11;7.05;;;1.00;;
22359;SDS011;11347;52.030;4.690;2023-04-12T15:00:37;10.30;;;1.20;;
22359;SDS011;11347;52.030;4.690;2023-04-12T15:03:04;5.93;;;0.85;;
22359;SDS011;11347;52.030;4.690;2023-04-12T15:05:31;4.75;;;1.20;;
22359;SDS011;11347;52.030;4.690;2023-04-12T15:07:57;7.18;;;1.52;;
22359;SDS011;11347;52.030;4.690;2023-04-12T15:10:23;4.38;;;0.90;;
22359;SDS011;11347;52.030;4.690;2023-04-12T15:12:50;8.45;;;1.45;;
22359;SDS011;11347;52.030;4.690;2023-04-12T15:15:16;7.40;;;1.50;;
22359;SDS011;11347;52.030;4.690;2023-04-12T15:17:42;5.68;;;1.30;;
22359;SDS011;11347;52.030;4.690;2023-04-12T15:20:08;7.00;;;1.50;;
22359;SDS011;11347;52.030;4.690;2023-04-12T15:22:35;7.65;;;1.40;;
22359;SDS011;11347;52.030;4.690;2023-04-12T15:25:01;10.70;;;1.77;;
22359;SDS011;11347;52.030;4.690;2023-04-12T15:27:28;5.65;;;1.25;;
22359;SDS011;11347;52.030;4.690;2023-04-12T15:29:55;8.57;;;1.50;;
22359;SDS011;11347;52.030;4.690;2023-04-12T15:32:21;7.55;;;1.48;;
22359;SDS011;11347;52.030;4.690;2023-04-12T15:34:47;7.90;;;1.40;;
22359;SDS011;11347;52.030;4.690;2023-04-12T15:37:13;9.20;;;1.60;;
22359;SDS011;11347;52.030;4.690;2023-04-12T15:39:39;8.63;;;1.50;;
22359;SDS011;11347;52.030;4.690;2023-04-12T15:42:06;11.25;;;1.63;;
22359;SDS011;11347;52.030;4.690;2023-04-12T15:44:32;7.53;;;1.42;;
22359;SDS011;11347;52.030;4.690;2023-04-12T15:46:58;9.05;;;1.73;;
22359;SDS011;11347;52.030;4.690;2023-04-12T15:49:24;8.23;;;1.40;;
22359;SDS011;11347;52.030;4.690;2023-04-12T15:51:51;13.43;;;2.20;;
22359;SDS011;11347;52.030;4.690;2023-04-12T15:54:17;10.55;;;1.73;;
22359;SDS011;11347;52.030;4.690;2023-04-12T15:56:43;8.95;;;1.60;;
22359;SDS011;11347;52.030;4.690;2023-04-12T15:59:09;11.90;;;2.10;;
22359;SDS011;11347;52.030;4.690;2023-04-12T16:01:36;7.70;;;1.88;;
22359;SDS011;11347;52.030;4.690;2023-04-12T16:04:02;8.30;;;2.00;;
22359;SDS011;11347;52.030;4.690;2023-04-12T16:06:29;10.55;;;2.10;;
22359;SDS011;11347;52.030;4.690;2023-04-12T16:08:59;10.90;;;2.05;;
22359;SDS011;11347;52.030;4.690;2023-04-12T16:11:26;12.48;;;1.92;;
22359;SDS011;11347;52.030;4.690;2023-04-12T16:13:52;8.50;;;1.67;;
22359;SDS011;11347;52.030;4.690;2023-04-12T16:16:22;8.80;;;1.42;;
22359;SDS011;11347;52.030;4.690;2023-04-12T16:18:48;7.47;;;1.40;;
22359;SDS011;11347;52.030;4.690;2023-04-12T16:21:16;8.97;;;1.70;;
22359;SDS011;11347;52.030;4.690;2023-04-12T16:23:44;12.65;;;1.77;;
22359;SDS011;11347;52.030;4.690;2023-04-12T16:26:12;9.50;;;1.73;;
22359;SDS011;11347;52.030;4.690;2023-04-12T16:28:38;12.65;;;1.70;;
22359;SDS011;11347;52.030;4.690;2023-04-12T16:31:07;9.30;;;1.80;;
22359;SDS011;11347;52.030;4.690;2023-04-12T16:33:33;7.40;;;1.38;;
22359;SDS011;11347;52.030;4.690;2023-04-12T16:35:59;13.30;;;1.75;;
22359;SDS011;11347;52.030;4.690;2023-04-12T16:38:28;7.32;;;1.45;;
22359;SDS011;11347;52.030;4.690;2023-04-12T16:40:54;9.98;;;1.50;;
22359;SDS011;11347;52.030;4.690;2023-04-12T16:43:20;15.40;;;2.30;;
22359;SDS011;11347;52.030;4.690;2023-04-12T16:45:46;10.15;;;1.80;;
22359;SDS011;11347;52.030;4.690;2023-04-12T16:48:13;10.60;;;1.73;;
22359;SDS011;11347;52.030;4.690;2023-04-12T16:50:40;10.80;;;2.27;;
22359;SDS011;11347;52.030;4.690;2023-04-12T16:53:09;12.68;;;1.92;;
22359;SDS011;11347;52.030;4.690;2023-04-12T16:55:40;8.77;;;1.60;;
22359;SDS011;11347;52.030;4.690;2023-04-12T16:58:06;12.93;;;1.90;;
22359;SDS011;11347;52.030;4.690;2023-04-12T17:00:32;10.88;;;1.65;;
22359;SDS011;11347;52.030;4.690;2023-04-12T17:02:59;12.20;;;2.07;;
22359;SDS011;11347;52.030;4.690;2023-04-12T17:05:25;9.93;;;1.75;;
22359;SDS011;11347;52.030;4.690;2023-04-12T17:07:52;8.30;;;1.52;;
22359;SDS011;11347;52.030;4.690;2023-04-12T17:10:20;6.70;;;1.60;;
22359;SDS011;11347;52.030;4.690;2023-04-12T17:12:47;8.00;;;1.60;;
22359;SDS011;11347;52.030;4.690;2023-04-12T17:15:14;9.00;;;1.77;;
22359;SDS011;11347;52.030;4.690;2023-04-12T17:17:42;6.05;;;1.25;;
22359;SDS011;11347;52.030;4.690;2023-04-12T17:20:08;6.93;;;1.50;;
22359;SDS011;11347;52.030;4.690;2023-04-12T17:22:35;10.30;;;1.85;;
22359;SDS011;11347;52.030;4.690;2023-04-12T17:25:03;7.45;;;1.60;;
22359;SDS011;11347;52.030;4.690;2023-04-12T17:27:29;11.63;;;1.48;;
22359;SDS011;11347;52.030;4.690;2023-04-12T17:29:58;9.32;;;1.42;;
22359;SDS011;11347;52.030;4.690;2023-04-12T17:32:25;7.45;;;1.45;;
22359;SDS011;11347;52.030;4.690;2023-04-12T17:34:51;9.23;;;1.58;;
22359;SDS011;11347;52.030;4.690;2023-04-12T17:37:19;9.95;;;1.35;;
22359;SDS011;11347;52.030;4.690;2023-04-12T17:39:47;7.80;;;1.40;;
22359;SDS011;11347;52.030;4.690;2023-04-12T17:42:13;9.07;;;1.42;;
22359;SDS011;11347;52.030;4.690;2023-04-12T17:44:39;10.57;;;1.65;;
22359;SDS011;11347;52.030;4.690;2023-04-12T17:47:05;10.23;;;1.48;;
22359;SDS011;11347;52.030;4.690;2023-04-12T17:49:31;8.45;;;1.33;;
22359;SDS011;11347;52.030;4.690;2023-04-12T17:51:57;9.32;;;1.70;;
22359;SDS011;11347;52.030;4.690;2023-04-12T17:54:25;7.72;;;1.50;;
22359;SDS011;11347;52.030;4.690;2023-04-12T17:56:51;8.75;;;1.35;;
22359;SDS011;11347;52.030;4.690;2023-04-12T17:59:17;11.10;;;1.75;;
22359;SDS011;11347;52.030;4.690;2023-04-12T18:01:43;9.60;;;1.55;;
22359;SDS011;11347;52.030;4.690;2023-04-12T18:04:09;8.85;;;1.45;;
22359;SDS011;11347;52.030;4.690;2023-04-12T18:06:36;10.68;;;2.00;;
22359;SDS011;11347;52.030;4.690;2023-04-12T18:09:03;9.40;;;1.73;;
22359;SDS011;11347;52.030;4.690;2023-04-12T18:11:30;7.55;;;1.52;;
22359;SDS011;11347;52.030;4.690;2023-04-12T18:14:00;10.10;;;1.45;;
22359;SDS011;11347;52.030;4.690;2023-04-12T18:16:26;7.97;;;1.30;;
22359;SDS011;11347;52.030;4.690;2023-04-12T18:18:52;9.20;;;1.60;;
22359;SDS011;11347;52.030;4.690;2023-04-12T18:21:19;8.63;;;2.37;;
22359;SDS011;11347;52.030;4.690;2023-04-12T18:23:46;14.95;;;4.72;;
22359;SDS011;11347;52.030;4.690;2023-04-12T18:26:12;11.80;;;2.00;;
22359;SDS011;11347;52.030;4.690;2023-04-12T18:28:38;8.82;;;1.63;;
22359;SDS011;11347;52.030;4.690;2023-04-12T18:31:04;9.25;;;1.73;;
22359;SDS011;11347;52.030;4.690;2023-04-12T18:33:30;8.88;;;1.55;;
22359;SDS011;11347;52.030;4.690;2023-04-12T18:35:56;11.90;;;1.88;;
22359;SDS011;11347;52.030;4.690;2023-04-12T18:38:22;14.23;;;6.43;;
22359;SDS011;11347;52.030;4.690;2023-04-12T18:40:49;9.00;;;1.80;;
22359;SDS011;11347;52.030;4.690;2023-04-12T18:43:15;11.23;;;1.80;;
22359;SDS011;11347;52.030;4.690;2023-04-12T18:45:41;11.17;;;1.90;;
22359;SDS011;11347;52.030;4.690;2023-04-12T18:48:07;11.47;;;1.67;;
22359;SDS011;11347;52.030;4.690;2023-04-12T18:50:34;12.73;;;1.60;;
22359;SDS011;11347;52.030;4.690;2023-04-12T18:53:03;10.70;;;1.60;;
22359;SDS011;11347;52.030;4.690;2023-04-12T18:55:29;9.77;;;1.67;;
22359;SDS011;11347;52.030;4.690;2023-04-12T18:57:55;11.90;;;2.05;;
22359;SDS011;11347;52.030;4.690;2023-04-12T19:00:21;10.38;;;1.83;;
22359;SDS011;11347;52.030;4.690;2023-04-12T19:02:47;12.37;;;1.60;;
22359;SDS011;11347;52.030;4.690;2023-04-12T19:05:13;10.85;;;1.70;;
22359;SDS011;11347;52.030;4.690;2023-04-12T19:07:39;9.63;;;1.60;;
22359;SDS011;11347;52.030;4.690;2023-04-12T19:10:06;9.73;;;1.85;;
22359;SDS011;11347;52.030;4.690;2023-04-12T19:12:34;9.77;;;1.63;;
22359;SDS011;11347;52.030;4.690;2023-04-12T19:15:00;9.65;;;1.65;;
22359;SDS011;11347;52.030;4.690;2023-04-12T19:17:26;8.23;;;1.85;;
22359;SDS011;11347;52.030;4.690;2023-04-12T19:19:52;12.02;;;2.00;;
22359;SDS011;11347;52.030;4.690;2023-04-12T19:22:18;7.32;;;1.70;;
22359;SDS011;11347;52.030;4.690;2023-04-12T19:24:48;8.73;;;1.73;;
22359;SDS011;11347;52.030;4.690;2023-04-12T19:27:14;12.05;;;1.83;;
22359;SDS011;11347;52.030;4.690;2023-04-12T19:29:40;12.33;;;2.00;;
22359;SDS011;11347;52.030;4.690;2023-04-12T19:32:07;9.05;;;2.05;;
22359;SDS011;11347;52.030;4.690;2023-04-12T19:34:36;11.45;;;1.98;;
22359;SDS011;11347;52.030;4.690;2023-04-12T19:37:02;9.73;;;2.53;;
22359;SDS011;11347;52.030;4.690;2023-04-12T19:39:28;11.07;;;2.20;;
22359;SDS011;11347;52.030;4.690;2023-04-12T19:41:54;12.15;;;2.22;;
22359;SDS011;11347;52.030;4.690;2023-04-12T19:44:20;7.35;;;1.75;;
22359;SDS011;11347;52.030;4.690;2023-04-12T19:46:47;10.60;;;1.90;;
22359;SDS011;11347;52.030;4.690;2023-04-12T19:49:13;9.00;;;1.90;;
22359;SDS011;11347;52.030;4.690;2023-04-12T19:51:39;9.13;;;1.50;;
22359;SDS011;11347;52.030;4.690;2023-04-12T19:54:05;7.78;;;1.65;;
22359;SDS011;11347;52.030;4.690;2023-04-12T19:56:34;10.82;;;1.73;;
22359;SDS011;11347;52.030;4.690;2023-04-12T19:59:01;9.65;;;1.60;;
22359;SDS011;11347;52.030;4.690;2023-04-12T20:01:29;12.57;;;1.73;;
22359;SDS011;11347;52.030;4.690;2023-04-12T20:04:11;8.93;;;1.60;;
22359;SDS011;11347;52.030;4.690;2023-04-12T20:06:37;9.25;;;1.60;;
22359;SDS011;11347;52.030;4.690;2023-04-12T20:09:04;7.60;;;1.10;;
22359;SDS011;11347;52.030;4.690;2023-04-12T20:11:30;8.32;;;1.60;;
22359;SDS011;11347;52.030;4.690;2023-04-12T20:13:56;7.38;;;1.35;;
22359;SDS011;11347;52.030;4.690;2023-04-12T20:16:22;8.18;;;1.50;;
22359;SDS011;11347;52.030;4.690;2023-04-12T20:18:48;9.20;;;1.42;;
22359;SDS011;11347;52.030;4.690;2023-04-12T20:21:19;9.50;;;1.63;;
22359;SDS011;11347;52.030;4.690;2023-04-12T20:23:46;9.70;;;2.50;;
22359;SDS011;11347;52.030;4.690;2023-04-12T20:26:15;6.97;;;1.48;;
22359;SDS011;11347;52.030;4.690;2023-04-12T20:28:41;19.77;;;5.95;;
22359;SDS011;11347;52.030;4.690;2023-04-12T20:31:08;13.88;;;4.20;;
22359;SDS011;11347;52.030;4.690;2023-04-12T20:33:36;5.18;;;1.40;;
22359;SDS011;11347;52.030;4.690;2023-04-12T20:36:02;4.95;;;1.40;;
22359;SDS011;11347;52.030;4.690;2023-04-12T20:38:28;6.20;;;1.10;;
22359;SDS011;11347;52.030;4.690;2023-04-12T20:40:55;5.65;;;1.17;;
22359;SDS011;11347;52.030;4.690;2023-04-12T20:43:22;4.82;;;1.00;;
22359;SDS011;11347;52.030;4.690;2023-04-12T20:45:48;4.45;;;1.10;;
22359;SDS011;11347;52.030;4.690;2023-04-12T20:48:14;5.18;;;0.90;;
22359;SDS011;11347;52.030;4.690;2023-04-12T20:50:41;6.65;;;1.20;;
22359;SDS011;11347;52.030;4.690;2023-04-12T20:53:07;7.60;;;0.90;;
22359;SDS011;11347;52.030;4.690;2023-04-12T20:55:43;3.67;;;1.00;;
22359;SDS011;11347;52.030;4.690;2023-04-12T20:58:09;5.45;;;1.00;;
22359;SDS011;11347;52.030;4.690;2023-04-12T21:00:36;5.07;;;1.07;;
22359;SDS011;11347;52.030;4.690;2023-04-12T21:03:03;5.38;;;1.10;;
22359;SDS011;11347;52.030;4.690;2023-04-12T21:05:29;6.43;;;1.17;;
22359;SDS011;11347;52.030;4.690;2023-04-12T21:07:57;6.28;;;1.10;;
22359;SDS011;11347;52.030;4.690;2023-04-12T21:10:23;5.88;;;1.02;;
22359;SDS011;11347;52.030;4.690;2023-04-12T21:12:50;4.22;;;1.02;;
22359;SDS011;11347;52.030;4.690;2023-04-12T21:15:16;6.53;;;1.00;;
22359;SDS011;11347;52.030;4.690;2023-04-12T21:17:48;2.88;;;0.82;;
22359;SDS011;11347;52.030;4.690;2023-04-12T21:20:16;4.03;;;0.90;;
22359;SDS011;11347;52.030;4.690;2023-04-12T21:22:42;2.63;;;0.80;;
22359;SDS011;11347;52.030;4.690;2023-04-12T21:25:09;4.70;;;1.10;;
22359;SDS011;11347;52.030;4.690;2023-04-12T21:27:37;5.10;;;1.00;;
22359;SDS011;11347;52.030;4.690;2023-04-12T21:30:04;6.25;;;1.00;;
22359;SDS011;11347;52.030;4.690;2023-04-12T21:32:30;4.15;;;1.20;;
22359;SDS011;11347;52.030;4.690;2023-04-12T21:34:56;4.07;;;0.95;;
22359;SDS011;11347;52.030;4.690;2023-04-12T21:37:22;3.75;;;0.90;;
22359;SDS011;11347;52.030;4.690;2023-04-12T21:39:49;6.20;;;0.93;;
22359;SDS011;11347;52.030;4.690;2023-04-12T21:42:15;3.58;;;0.82;;
22359;SDS011;11347;52.030;4.690;2023-04-12T21:44:42;4.80;;;1.00;;
22359;SDS011;11347;52.030;4.690;2023-04-12T21:47:08;6.00;;;0.90;;
22359;SDS011;11347;52.030;4.690;2023-04-12T21:49:34;5.05;;;1.00;;
22359;SDS011;11347;52.030;4.690;2023-04-12T21:52:00;3.63;;;0.93;;
22359;SDS011;11347;52.030;4.690;2023-04-12T21:54:26;5.13;;;1.10;;
22359;SDS011;11347;52.030;4.690;2023-04-12T21:56:53;5.85;;;1.25;;
22359;SDS011;11347;52.030;4.690;2023-04-12T21:59:20;8.18;;;1.67;;
22359;SDS011;11347;52.030;4.690;2023-04-12T22:01:46;5.20;;;1.00;;
22359;SDS011;11347;52.030;4.690;2023-04-12T22:04:12;4.95;;;1.40;;
22359;SDS011;11347;52.030;4.690;2023-04-12T22:06:38;4.22;;;1.10;;
22359;SDS011;11347;52.030;4.690;2023-04-12T22:09:04;6.18;;;1.60;;
22359;SDS011;11347;52.030;4.690;2023-04-12T22:11:30;4.20;;;1.27;;
22359;SDS011;11347;52.030;4.690;2023-04-12T22:13:56;3.38;;;0.80;;
22359;SDS011;11347;52.030;4.690;2023-04-12T22:16:22;4.67;;;0.93;;
22359;SDS011;11347;52.030;4.690;2023-04-12T22:18:49;4.18;;;0.98;;
22359;SDS011;11347;52.030;4.690;2023-04-12T22:21:15;3.58;;;0.90;;
22359;SDS011;11347;52.030;4.690;2023-04-12T22:23:42;5.80;;;1.17;;
22359;SDS011;11347;52.030;4.690;2023-04-12T22:26:09;4.38;;;1.20;;
22359;SDS011;11347;52.030;4.690;2023-04-12T22:28:35;2.90;;;1.23;;
22359;SDS011;11347;52.030;4.690;2023-04-12T22:31:04;3.25;;;1.00;;
22359;SDS011;11347;52.030;4.690;2023-04-12T22:33:32;6.18;;;1.30;;
22359;SDS011;11347;52.030;4.690;2023-04-12T22:35:58;4.28;;;1.30;;
22359;SDS011;11347;52.030;4.690;2023-04-12T22:38:26;3.83;;;1.05;;
22359;SDS011;11347;52.030;4.690;2023-04-12T22:40:52;4.10;;;1.20;;
22359;SDS011;11347;52.030;4.690;2023-04-12T22:43:25;3.40;;;1.17;;
22359;SDS011;11347;52.030;4.690;2023-04-12T22:45:58;6.38;;;1.60;;
22359;SDS011;11347;52.030;4.690;2023-04-12T22:48:28;5.55;;;1.00;;
22359;SDS011;11347;52.030;4.690;2023-04-12T22:50:58;6.30;;;1.10;;
22359;SDS011;11347;52.030;4.690;2023-04-12T22:53:25;3.55;;;0.80;;
22359;SDS011;11347;52.030;4.690;2023-04-12T22:55:55;5.30;;;1.20;;